createdAt,value
2018-04-01T00:00:20.663Z,1.90
2018-04-01T00:02:48.335Z,1.70
2018-04-01T00:05:15.310Z,2.67
2018-04-01T00:07:42.281Z,2.33
2018-04-01T00:10:09.290Z,2.20
2018-04-01T00:12:36.265Z,2.15
2018-04-01T00:15:03.285Z,1.98
2018-04-01T00:17:30.281Z,2.20
2018-04-01T00:19:57.411Z,1.80
2018-04-01T00:22:24.714Z,2.28
2018-04-01T00:24:51.955Z,1.60
2018-04-01T00:27:19.312Z,2.10
2018-04-01T00:29:46.297Z,1.70
2018-04-01T00:32:13.270Z,2.33
2018-04-01T00:34:40.278Z,2.17
2018-04-01T00:37:09.104Z,1.87
2018-04-01T00:39:36.290Z,1.75
2018-04-01T00:42:03.673Z,1.87
2018-04-01T00:44:30.647Z,2.03
2018-04-01T00:46:57.978Z,1.92
2018-04-01T00:49:24.950Z,1.85
2018-04-01T00:51:52.257Z,1.37
2018-04-01T00:54:19.230Z,2.00
2018-04-01T00:56:46.203Z,1.70
2018-04-01T00:59:13.205Z,2.40
2018-04-01T01:01:40.172Z,1.80
2018-04-01T01:04:07.274Z,2.97
2018-04-01T01:06:34.240Z,2.30
2018-04-01T01:09:01.230Z,3.00
2018-04-01T01:11:28.261Z,2.33
2018-04-01T01:13:55.234Z,2.97
2018-04-01T01:16:22.413Z,3.70
2018-04-01T01:18:49.653Z,3.90
2018-04-01T01:21:16.626Z,3.08
2018-04-01T01:23:43.622Z,3.92
2018-04-01T01:26:10.595Z,4.45
2018-04-01T01:28:37.853Z,4.12
2018-04-01T01:31:04.829Z,3.65
2018-04-01T01:33:31.797Z,4.72
2018-04-01T01:35:58.810Z,4.57
2018-04-01T01:38:25.795Z,4.22
2018-04-01T01:40:52.816Z,4.62
2018-04-01T01:43:19.817Z,5.20
2018-04-01T01:45:46.857Z,6.30
2018-04-01T01:48:13.853Z,5.20
2018-04-01T01:50:40.830Z,5.87
2018-04-01T01:53:07.842Z,4.80
2018-04-01T01:55:34.824Z,4.85
2018-04-01T01:58:01.806Z,5.00
2018-04-01T02:00:28.834Z,4.60
2018-04-01T02:02:55.820Z,4.03
2018-04-01T02:05:23.374Z,5.07
2018-04-01T02:07:50.346Z,4.15
2018-04-01T02:10:17.330Z,4.85
2018-04-01T02:12:44.325Z,4.15
2018-04-01T02:15:11.318Z,4.40
2018-04-01T02:17:38.322Z,5.32
2018-04-01T02:20:05.302Z,4.25
2018-04-01T02:22:32.285Z,4.75
2018-04-01T02:24:59.289Z,5.10
2018-04-01T02:27:26.266Z,5.18
2018-04-01T02:29:53.282Z,5.10
2018-04-01T02:32:20.255Z,5.40
2018-04-01T02:34:47.238Z,5.30
2018-04-01T02:37:14.249Z,5.45
2018-04-01T02:39:41.230Z,5.05
2018-04-01T02:42:08.349Z,3.40
2018-04-01T02:44:35.332Z,2.80
2018-04-01T02:47:02.307Z,3.10
2018-04-01T02:49:29.311Z,2.17
2018-04-01T02:51:56.283Z,2.00
2018-04-01T02:54:23.486Z,2.10
2018-04-01T02:56:50.453Z,2.83
2018-04-01T02:59:17.430Z,2.25
2018-04-01T03:01:44.439Z,1.40
2018-04-01T03:04:11.414Z,1.60
2018-04-01T03:06:38.719Z,1.20
2018-04-01T03:09:06.050Z,1.65
2018-04-01T03:11:33.025Z,1.40
2018-04-01T03:14:00.024Z,1.17
2018-04-01T03:16:26.997Z,1.20
2018-04-01T03:18:54.157Z,1.52
2018-04-01T03:21:21.138Z,1.30
2018-04-01T03:23:48.113Z,1.80
2018-04-01T03:26:15.118Z,1.40
2018-04-01T03:28:42.093Z,1.50
2018-04-01T03:31:09.192Z,1.90
2018-04-01T03:33:36.171Z,1.60
2018-04-01T03:36:03.149Z,1.83
2018-04-01T03:38:30.150Z,2.08
2018-04-01T03:40:57.122Z,1.83
2018-04-01T03:43:24.214Z,1.98
2018-04-01T03:45:51.186Z,2.08
2018-04-01T03:48:18.166Z,2.65
2018-04-01T03:50:45.169Z,1.90
2018-04-01T03:53:12.142Z,2.28
2018-04-01T03:55:39.445Z,2.55
2018-04-01T03:58:06.430Z,2.15
2018-04-01T04:00:33.404Z,2.45
2018-04-01T04:03:00.458Z,2.75
2018-04-01T04:05:27.441Z,3.30
2018-04-01T04:07:54.590Z,4.07
2018-04-01T04:10:21.563Z,3.20
2018-04-01T04:12:48.541Z,4.20
2018-04-01T04:15:15.558Z,3.83
2018-04-01T04:17:42.550Z,3.58
2018-04-01T04:20:09.737Z,4.72
2018-04-01T04:22:36.714Z,3.62
2018-04-01T04:25:03.686Z,4.43
2018-04-01T04:27:30.941Z,3.53
2018-04-01T04:29:57.984Z,4.00
2018-04-01T04:32:25.370Z,3.92
2018-04-01T04:34:52.349Z,3.62
2018-04-01T04:37:19.318Z,4.00
2018-04-01T04:39:46.333Z,3.65
2018-04-01T04:42:13.302Z,2.87
2018-04-01T04:44:40.481Z,4.20
2018-04-01T04:47:07.456Z,5.25
2018-04-01T04:49:35.447Z,4.93
2018-04-01T04:52:02.449Z,4.70
2018-04-01T04:54:29.423Z,4.85
2018-04-01T04:56:57.354Z,4.62
2018-04-01T04:59:24.321Z,5.35
2018-04-01T05:01:51.303Z,5.35
2018-04-01T05:04:18.295Z,4.90
2018-04-01T05:06:45.273Z,5.85
2018-04-01T05:09:12.285Z,5.10
2018-04-01T05:11:39.262Z,6.12
2018-04-01T05:14:06.223Z,4.72
2018-04-01T05:16:33.216Z,5.68
2018-04-01T05:19:00.220Z,5.45
2018-04-01T05:21:27.549Z,4.82
2018-04-01T05:23:54.526Z,4.75
2018-04-01T05:26:21.506Z,5.85
2018-04-01T05:28:48.722Z,5.32
2018-04-01T05:31:15.717Z,5.85
2018-04-01T05:33:43.203Z,4.93
2018-04-01T05:36:10.177Z,5.82
2018-04-01T05:38:37.153Z,5.50
2018-04-01T05:41:04.162Z,5.78
2018-04-01T05:43:31.151Z,5.15
2018-04-01T05:45:59.069Z,5.35
2018-04-01T05:48:26.038Z,4.70
2018-04-01T05:50:53.081Z,4.50
2018-04-01T05:53:20.378Z,4.47
2018-04-01T05:55:47.342Z,5.57
2018-04-01T05:58:14.484Z,4.93
2018-04-01T06:00:41.469Z,6.25
2018-04-01T06:03:08.445Z,5.85
2018-04-01T06:05:35.447Z,4.72
2018-04-01T06:08:02.416Z,4.78
2018-04-01T06:10:29.743Z,4.43
2018-04-01T06:12:56.715Z,4.15
2018-04-01T06:15:23.689Z,3.87
2018-04-01T06:17:50.698Z,4.18
2018-04-01T06:20:17.669Z,3.45
2018-04-01T06:22:44.853Z,4.87
2018-04-01T06:25:11.836Z,4.28
2018-04-01T06:27:38.815Z,4.05
2018-04-01T06:30:05.815Z,3.75
2018-04-01T06:32:32.801Z,4.43
2018-04-01T06:34:59.901Z,3.97
2018-04-01T06:37:26.877Z,3.58
2018-04-01T06:39:53.910Z,3.50
2018-04-01T06:42:20.882Z,4.00
2018-04-01T06:44:47.852Z,3.67
2018-04-01T06:47:15.028Z,2.70
2018-04-01T06:49:42.018Z,3.22
2018-04-01T06:52:09.333Z,3.35
2018-04-01T06:54:36.338Z,3.42
2018-04-01T06:57:03.346Z,3.12
2018-04-01T06:59:30.464Z,2.92
2018-04-01T07:01:57.442Z,3.35
2018-04-01T07:04:24.425Z,2.72
2018-04-01T07:06:51.427Z,2.80
2018-04-01T07:09:18.473Z,3.10
2018-04-01T07:11:45.480Z,3.70
2018-04-01T07:14:12.461Z,3.00
2018-04-01T07:16:39.454Z,3.83
2018-04-01T07:19:06.764Z,3.20
2018-04-01T07:21:34.113Z,4.18
2018-04-01T07:24:01.246Z,4.40
2018-04-01T07:26:28.226Z,3.55
2018-04-01T07:28:55.197Z,4.37
2018-04-01T07:31:22.197Z,4.03
2018-04-01T07:33:49.176Z,4.40
2018-04-01T07:36:16.220Z,5.30
2018-04-01T07:38:43.174Z,5.05
2018-04-01T07:41:10.149Z,4.47
2018-04-01T07:43:37.149Z,4.65
2018-04-01T07:46:04.122Z,3.95
2018-04-01T07:48:31.147Z,3.67
2018-04-01T07:50:58.117Z,2.58
2018-04-01T07:53:25.094Z,3.20
2018-04-01T07:55:52.108Z,3.00
2018-04-01T07:58:19.198Z,3.30
2018-04-01T08:00:46.493Z,2.65
2018-04-01T08:03:13.583Z,2.70
2018-04-01T08:05:41.402Z,2.60
2018-04-01T08:08:08.461Z,3.70
2018-04-01T08:10:35.402Z,3.10
2018-04-01T08:13:02.741Z,3.65
2018-04-01T08:15:29.744Z,2.95
2018-04-01T08:17:57.127Z,2.97
2018-04-01T08:20:24.277Z,3.10
2018-04-01T08:22:51.427Z,3.25
2018-04-01T08:25:18.555Z,2.90
2018-04-01T08:27:45.830Z,3.70
2018-04-01T08:30:12.830Z,3.10
2018-04-01T08:32:39.955Z,3.40
2018-04-01T08:35:07.205Z,3.10
2018-04-01T08:37:34.836Z,2.95
2018-04-01T08:40:01.935Z,3.62
2018-04-01T08:42:29.570Z,3.12
2018-04-01T08:44:56.568Z,2.50
2018-04-01T08:47:23.553Z,3.10
2018-04-01T08:49:51.484Z,3.08
2018-04-01T08:52:18.457Z,2.60
2018-04-01T08:54:45.426Z,2.58
2018-04-01T08:57:12.418Z,2.70
2018-04-01T08:59:39.389Z,3.10
2018-04-01T09:02:06.618Z,1.90
2018-04-01T09:04:33.598Z,2.83
2018-04-01T09:07:00.634Z,2.90
2018-04-01T09:09:27.665Z,2.70
2018-04-01T09:11:54.634Z,3.17
2018-04-01T09:14:21.778Z,2.80
2018-04-01T09:16:49.026Z,2.78
2018-04-01T09:19:16.072Z,2.95
2018-04-01T09:21:43.085Z,2.83
2018-04-01T09:24:10.066Z,2.80
2018-04-01T09:26:37.562Z,3.03
2018-04-01T09:29:04.674Z,2.05
2018-04-01T09:31:31.927Z,2.83
2018-04-01T09:33:59.064Z,2.90
2018-04-01T09:36:26.163Z,2.80
2018-04-01T09:38:53.833Z,3.17
2018-04-01T09:41:21.343Z,3.28
2018-04-01T09:43:48.553Z,2.78
2018-04-01T09:46:15.848Z,3.05
2018-04-01T09:48:43.100Z,2.60
2018-04-01T09:51:10.966Z,3.35
2018-04-01T09:53:38.217Z,3.50
2018-04-01T09:56:05.483Z,3.40
2018-04-01T09:58:32.926Z,3.50
2018-04-01T10:01:01.513Z,3.47
2018-04-01T10:03:29.684Z,3.25
2018-04-01T10:05:57.504Z,3.80
2018-04-01T10:08:25.214Z,3.03
2018-04-01T10:10:52.977Z,3.28
2018-04-01T10:13:20.779Z,2.83
2018-04-01T10:15:48.607Z,2.87
2018-04-01T10:18:16.347Z,3.08
2018-04-01T10:20:44.033Z,3.65
2018-04-01T10:23:11.800Z,2.55
2018-04-01T10:25:39.365Z,2.62
2018-04-01T10:28:07.154Z,2.53
2018-04-01T10:30:35.089Z,2.95
2018-04-01T10:33:02.954Z,3.50
2018-04-01T10:35:31.026Z,2.30
2018-04-01T10:37:58.910Z,3.28
2018-04-01T10:40:26.546Z,2.90
2018-04-01T10:42:54.097Z,2.90
2018-04-01T10:45:21.711Z,2.83
2018-04-01T10:47:49.541Z,1.80
2018-04-01T10:50:17.875Z,3.70
2018-04-01T10:52:45.647Z,2.58
2018-04-01T10:55:12.788Z,2.62
2018-04-01T10:57:39.969Z,3.25
2018-04-01T11:00:07.010Z,2.97
2018-04-01T11:02:34.326Z,3.12
2018-04-01T11:05:01.367Z,5.20
2018-04-01T11:07:28.573Z,5.47
2018-04-01T11:09:55.788Z,5.68
2018-04-01T11:12:22.982Z,3.97
2018-04-01T11:14:50.314Z,7.22
2018-04-01T11:17:17.487Z,6.03
2018-04-01T11:19:44.737Z,5.55
2018-04-01T11:22:12.094Z,4.50
2018-04-01T11:24:39.447Z,4.70
2018-04-01T11:27:07.316Z,5.07
2018-04-01T11:29:34.566Z,3.87
2018-04-01T11:32:01.819Z,4.93
2018-04-01T11:34:29.172Z,5.15
2018-04-01T11:36:56.323Z,5.75
2018-04-01T11:39:23.575Z,6.12
2018-04-01T11:41:50.903Z,5.10
2018-04-01T11:44:18.079Z,6.12
2018-04-01T11:46:45.291Z,7.62
2018-04-01T11:49:12.481Z,6.72
2018-04-01T11:51:39.597Z,6.25
2018-04-01T11:54:06.768Z,6.85
2018-04-01T11:56:33.907Z,8.18
2018-04-01T11:59:01.796Z,7.83
2018-04-01T12:01:29.116Z,6.77
2018-04-01T12:03:56.505Z,7.97
2018-04-01T12:06:23.869Z,6.47
2018-04-01T12:08:51.215Z,8.77
2018-04-01T12:11:19.594Z,8.33
2018-04-01T12:13:46.860Z,7.30
2018-04-01T12:16:14.192Z,6.43
2018-04-01T12:18:41.687Z,7.63
2018-04-01T12:21:09.434Z,7.10
2018-04-01T12:23:36.672Z,7.60
2018-04-01T12:26:04.029Z,9.68
2018-04-01T12:28:31.386Z,7.80
2018-04-01T12:30:58.618Z,6.43
2018-04-01T12:33:26.401Z,6.40
2018-04-01T12:35:53.549Z,5.77
2018-04-01T12:38:21.004Z,6.80
2018-04-01T12:40:48.152Z,6.60
2018-04-01T12:43:15.303Z,8.98
2018-04-01T12:45:42.862Z,7.12
2018-04-01T12:48:10.112Z,7.90
2018-04-01T12:50:37.268Z,7.05
2018-04-01T12:53:04.420Z,8.57
2018-04-01T12:55:31.873Z,9.45
2018-04-01T12:57:59.314Z,9.13
2018-04-01T13:00:26.477Z,7.10
2018-04-01T13:02:53.531Z,9.50
2018-04-01T13:05:21.391Z,7.22
2018-04-01T13:07:48.544Z,7.28
2018-04-01T13:10:15.997Z,6.90
2018-04-01T13:12:43.205Z,7.62
2018-04-01T13:15:10.683Z,7.57
2018-04-01T13:17:37.855Z,6.62
2018-04-01T13:20:05.291Z,8.25
2018-04-01T13:22:32.405Z,6.47
2018-04-01T13:24:59.409Z,6.43
2018-04-01T13:27:26.549Z,6.85
2018-04-01T13:29:53.580Z,5.97
2018-04-01T13:32:20.731Z,6.03
2018-04-01T13:34:48.114Z,4.22
2018-04-01T13:37:15.177Z,3.75
2018-04-01T13:39:42.305Z,3.15
2018-04-01T13:42:09.659Z,3.25
2018-04-01T13:44:36.642Z,3.37
2018-04-01T13:47:03.719Z,3.50
2018-04-01T13:49:31.279Z,3.80
2018-04-01T13:51:58.775Z,5.28
2018-04-01T13:54:26.127Z,6.80
2018-04-01T13:56:53.275Z,5.10
2018-04-01T13:59:20.628Z,6.18
2018-04-01T14:01:47.780Z,5.50
2018-04-01T14:04:15.031Z,4.75
2018-04-01T14:06:42.487Z,5.95
2018-04-01T14:09:09.539Z,5.65
2018-04-01T14:11:37.100Z,5.22
2018-04-01T14:14:04.346Z,4.70
2018-04-01T14:16:31.693Z,6.12
2018-04-01T14:18:58.758Z,6.00
2018-04-01T14:21:25.749Z,5.65
2018-04-01T14:23:53.120Z,6.70
2018-04-01T14:26:20.367Z,5.90
2018-04-01T14:28:47.857Z,6.70
2018-04-01T14:31:15.213Z,7.30
2018-04-01T14:33:42.772Z,6.77
2018-04-01T14:36:09.845Z,7.07
2018-04-01T14:38:36.829Z,6.23
2018-04-01T14:41:04.021Z,5.53
2018-04-01T14:43:31.166Z,7.47
2018-04-01T14:45:58.234Z,5.83
2018-04-01T14:48:25.798Z,6.70
2018-04-01T14:50:52.802Z,6.77
2018-04-01T14:53:20.073Z,6.35
2018-04-01T14:55:47.287Z,6.75
2018-04-01T14:58:14.679Z,5.80
2018-04-01T15:00:42.522Z,6.93
2018-04-01T15:03:09.739Z,6.95
2018-04-01T15:05:36.845Z,6.15
2018-04-01T15:08:03.994Z,5.90
2018-04-01T15:10:31.149Z,5.35
2018-04-01T15:12:58.600Z,6.53
2018-04-01T15:15:26.782Z,5.72
2018-04-01T15:17:53.924Z,5.37
2018-04-01T15:20:21.074Z,4.40
2018-04-01T15:22:48.530Z,5.40
2018-04-01T15:25:16.602Z,6.47
2018-04-01T15:27:44.468Z,6.00
2018-04-01T15:32:48.086Z,5.62
2018-04-01T15:35:15.338Z,5.72
2018-04-01T15:37:42.590Z,5.10
2018-04-01T15:40:09.814Z,6.00
2018-04-01T15:42:37.056Z,6.87
2018-04-01T15:45:04.319Z,7.75
2018-04-01T15:47:31.498Z,7.97
2018-04-01T15:49:58.852Z,5.68
2018-04-01T15:52:26.002Z,7.50
2018-04-01T15:54:53.126Z,9.80
2018-04-01T15:57:21.471Z,6.90
2018-04-01T15:59:48.782Z,6.85
2018-04-01T16:02:16.238Z,7.20
2018-04-01T16:04:44.637Z,7.15
2018-04-01T16:07:11.868Z,7.70
2018-04-01T16:09:39.107Z,5.95
2018-04-01T16:12:06.332Z,7.72
2018-04-01T16:14:33.926Z,7.70
2018-04-01T16:17:01.142Z,6.50
2018-04-01T16:19:28.847Z,5.80
2018-04-01T16:21:56.198Z,8.35
2018-04-01T16:24:23.453Z,6.85
2018-04-01T16:26:52.065Z,6.70
2018-04-01T16:29:19.390Z,7.60
2018-04-01T16:31:46.949Z,7.37
2018-04-01T16:34:14.302Z,5.50
2018-04-01T16:36:41.527Z,6.62
2018-04-01T16:39:08.888Z,6.50
2018-04-01T16:41:36.163Z,7.72
2018-04-01T16:44:03.414Z,6.32
2018-04-01T16:46:30.666Z,7.03
2018-04-01T16:48:57.887Z,5.93
2018-04-01T16:51:25.273Z,7.20
2018-04-01T16:53:52.528Z,6.78
2018-04-01T16:56:20.407Z,6.65
2018-04-01T16:58:47.748Z,6.57
2018-04-01T17:01:14.964Z,7.10
2018-04-01T17:03:42.251Z,6.22
2018-04-01T17:06:09.505Z,6.55
2018-04-01T17:08:37.061Z,6.65
2018-04-01T17:11:04.210Z,6.53
2018-04-01T17:13:31.425Z,6.87
2018-04-01T17:15:58.715Z,6.68
2018-04-01T17:18:26.068Z,6.07
2018-04-01T17:20:53.629Z,7.35
2018-04-01T17:23:20.982Z,7.80
2018-04-01T17:25:48.134Z,7.18
2018-04-01T17:28:15.487Z,7.85
2018-04-01T17:30:42.796Z,7.87
2018-04-01T17:33:10.815Z,7.40
2018-04-01T17:35:38.164Z,9.10
2018-04-01T17:38:05.329Z,9.65
2018-04-01T17:40:33.159Z,8.88
2018-04-01T17:43:00.329Z,9.15
2018-04-01T17:45:27.483Z,9.18
2018-04-01T17:47:54.834Z,9.07
2018-04-01T17:50:21.975Z,7.50
2018-04-01T17:52:49.320Z,8.52
2018-04-01T17:55:16.445Z,6.87
2018-04-01T17:57:43.740Z,7.50
2018-04-01T18:00:10.977Z,5.22
2018-04-01T18:02:39.170Z,5.70
2018-04-01T18:05:06.755Z,6.87
2018-04-01T18:07:33.871Z,7.95
2018-04-01T18:10:01.941Z,6.78
2018-04-01T18:12:29.302Z,7.78
2018-04-01T18:14:56.680Z,7.43
2018-04-01T18:17:24.216Z,7.68
2018-04-01T18:19:51.468Z,7.75
2018-04-01T18:22:19.232Z,7.20
2018-04-01T18:24:46.584Z,9.10
2018-04-01T18:27:13.941Z,7.90
2018-04-01T18:29:41.499Z,7.75
2018-04-01T18:32:08.956Z,8.38
2018-04-01T18:34:36.210Z,6.60
2018-04-01T18:37:03.972Z,8.45
2018-04-01T18:39:31.329Z,7.32
2018-04-01T18:41:58.887Z,7.45
2018-04-01T18:44:26.241Z,10.05
2018-04-01T18:46:54.308Z,7.93
2018-04-01T18:49:21.671Z,10.15
2018-04-01T18:51:49.123Z,9.45
2018-04-01T18:54:16.786Z,9.27
2018-04-01T18:56:44.145Z,8.52
2018-04-01T18:59:12.110Z,9.23
2018-04-01T19:01:40.592Z,9.48
2018-04-01T19:04:07.845Z,8.57
2018-04-01T19:06:35.402Z,8.63
2018-04-01T19:09:06.015Z,8.95
2018-04-01T19:11:33.209Z,8.65
2018-04-01T19:14:01.644Z,9.02
2018-04-01T19:16:30.109Z,8.85
2018-04-01T19:18:58.523Z,6.40
2018-04-01T19:21:27.415Z,8.80
2018-04-01T19:23:55.691Z,7.60
2018-04-01T19:26:23.660Z,6.95
2018-04-01T19:28:52.550Z,7.05
2018-04-01T19:31:20.628Z,8.32
2018-04-01T19:33:48.389Z,7.07
2018-04-01T19:36:16.770Z,7.80
2018-04-01T19:38:44.834Z,8.32
2018-04-01T19:41:12.702Z,8.13
2018-04-01T19:43:41.188Z,8.23
2018-04-01T19:46:08.372Z,8.20
2018-04-01T19:48:36.036Z,8.23
2018-04-01T19:51:03.977Z,9.27
2018-04-01T19:53:31.829Z,8.93
2018-04-01T19:56:00.173Z,10.45
2018-04-01T19:58:28.074Z,8.90
2018-04-01T20:00:55.941Z,10.10
2018-04-01T20:03:23.808Z,9.90
2018-04-01T20:05:51.778Z,10.05
2018-04-01T20:08:21.384Z,9.77
2018-04-01T20:10:49.250Z,9.02
2018-04-01T20:13:17.220Z,8.95
2018-04-01T20:15:44.981Z,8.80
2018-04-01T20:18:12.849Z,10.88
2018-04-01T20:20:41.021Z,8.93
2018-04-01T20:23:08.881Z,9.05
2018-04-01T20:25:36.730Z,10.15
2018-04-01T20:28:04.688Z,8.68
2018-04-01T20:30:33.001Z,10.70
2018-04-01T20:33:01.178Z,10.55
2018-04-01T20:35:29.556Z,10.75
2018-04-01T20:37:57.423Z,11.50
2018-04-01T20:40:25.287Z,11.73
2018-04-01T20:42:53.113Z,11.68
2018-04-01T20:45:21.737Z,12.18
2018-04-01T20:47:49.596Z,10.75
2018-04-01T20:50:18.795Z,11.30
2018-04-01T20:52:46.770Z,10.98
2018-04-01T20:55:14.841Z,9.82
2018-04-01T20:57:43.014Z,11.95
2018-04-01T21:00:11.871Z,11.75
2018-04-01T21:02:39.896Z,9.27
2018-04-01T21:05:09.381Z,11.57
2018-04-01T21:07:38.329Z,10.52
2018-04-01T21:10:07.162Z,10.60
2018-04-01T21:12:35.265Z,10.52
2018-04-01T21:15:03.541Z,12.37
2018-04-01T21:17:31.274Z,12.55
2018-04-01T21:20:00.738Z,13.18
2018-04-01T21:22:28.804Z,12.25
2018-04-01T21:24:56.718Z,13.35
2018-04-01T21:27:25.018Z,12.80
2018-04-01T21:29:52.961Z,12.73
2018-04-01T21:32:20.931Z,13.15
2018-04-01T21:34:49.103Z,12.77
2018-04-01T21:37:17.483Z,12.77
2018-04-01T21:39:45.348Z,11.60
2018-04-01T21:42:13.298Z,12.27
2018-04-01T21:44:41.189Z,11.52
2018-04-01T21:47:09.256Z,12.35
2018-04-01T21:49:37.226Z,12.43
2018-04-01T21:52:04.988Z,12.40
2018-04-01T21:54:33.674Z,12.48
2018-04-01T21:57:01.541Z,12.57
2018-04-01T21:59:30.163Z,11.48
2018-04-01T22:01:58.092Z,12.63
2018-04-01T22:04:25.841Z,12.13
2018-04-01T22:06:53.694Z,13.40
2018-04-01T22:09:21.362Z,13.20
2018-04-01T22:11:49.251Z,12.88
2018-04-01T22:14:17.322Z,11.90
2018-04-01T22:16:45.071Z,14.55
2018-04-01T22:19:12.734Z,14.32
2018-04-01T22:21:40.717Z,14.30
2018-04-01T22:24:08.490Z,12.50
2018-04-01T22:26:36.239Z,12.68
2018-04-01T22:29:04.112Z,12.57
2018-04-01T22:31:32.184Z,13.52
2018-04-01T22:33:59.785Z,13.07
2018-04-01T22:36:27.668Z,12.43
2018-04-01T22:38:55.622Z,15.65
2018-04-01T22:41:23.183Z,13.82
2018-04-01T22:43:50.805Z,13.27
2018-04-01T22:46:18.557Z,13.75
2018-04-01T22:48:46.147Z,13.60
2018-04-01T22:51:13.881Z,14.50
2018-04-01T22:53:41.651Z,13.50
2018-04-01T22:56:09.405Z,13.52
2018-04-01T22:58:37.182Z,12.07
2018-04-01T23:01:04.872Z,13.57
2018-04-01T23:03:32.706Z,14.60
2018-04-01T23:06:00.442Z,14.73
2018-04-01T23:08:28.134Z,14.30
2018-04-01T23:10:55.730Z,12.93
2018-04-01T23:13:23.278Z,13.75
2018-04-01T23:15:50.913Z,11.55
2018-04-01T23:18:18.661Z,14.77
2018-04-01T23:20:46.242Z,12.43
2018-04-01T23:23:13.848Z,12.75
2018-04-01T23:25:41.410Z,14.60
2018-04-01T23:28:09.349Z,13.75
2018-04-01T23:30:36.943Z,11.60
2018-04-01T23:33:05.224Z,14.50
2018-04-01T23:35:32.923Z,14.40
2018-04-01T23:38:00.471Z,13.02
2018-04-01T23:40:30.408Z,14.27
2018-04-01T23:42:57.964Z,15.15
2018-04-01T23:45:25.515Z,12.37
2018-04-01T23:47:53.107Z,12.55
2018-04-01T23:50:20.666Z,13.75
2018-04-01T23:52:48.297Z,13.43
2018-04-01T23:55:15.905Z,14.70
2018-04-01T23:57:43.478Z,16.23
